Time;durP1;ratioP1;P1;durP2;ratioP2;P2;SDS_P1;SDS_P2;PMS_P1;PMS_P2;Temp;Humidity;BMP_temperature;BMP_pressure;BME280_temperature;BME280_humidity;BME280_pressure;Samples;Min_cycle;Max_cycle;Signal;HPM_P1;HPM_P2
2022/01/07 00:01:32;;;;;;;6.60;1.83;;;-1.30;99.50;;;;;;4976917;28;19894;-80
2022/01/07 00:03:58;;;;;;;;;;;-1.30;99.90;;;;;;4981477;28;20014;-79
2022/01/07 00:06:23;;;;;;;15.07;2.58;;;-1.40;99.90;;;;;;4979971;28;19917;-78
2022/01/07 00:08:49;;;;;;;;;;;-1.50;99.90;;;;;;4977466;28;20038;-79
2022/01/07 00:11:15;;;;;;;6.55;1.10;;;-1.50;99.90;;;;;;4982491;28;19908;-79
2022/01/07 00:13:42;;;;;;;4.72;1.17;;;-1.50;99.90;;;;;;5001231;28;20034;-79
2022/01/07 00:16:08;;;;;;;6.20;1.73;;;-1.40;99.90;;;;;;4980168;28;20046;-79
2022/01/07 00:18:34;;;;;;;;;;;-1.40;99.90;;;;;;4981150;28;20034;-79
2022/01/07 00:21:00;;;;;;;11.48;3.58;;;-1.30;99.90;;;;;;4984691;28;19902;-80
2022/01/07 00:23:26;;;;;;;7.32;3.17;;;-1.50;99.90;;;;;;5000883;28;20031;-79
2022/01/07 00:25:52;;;;;;;10.77;3.22;;;-1.50;99.90;;;;;;4998068;28;20034;-78
2022/01/07 00:28:19;;;;;;;9.70;3.30;;;-1.50;99.90;;;;;;4976746;28;20377;-78
2022/01/07 00:30:44;;;;;;;12.07;2.72;;;-1.60;99.90;;;;;;4992033;28;20106;-80
2022/01/07 00:33:10;;;;;;;;;;;-1.60;99.90;;;;;;4996790;28;20023;-79
2022/01/07 00:35:37;;;;;;;8.55;2.75;;;-1.70;99.90;;;;;;4981197;28;19913;-79
2022/01/07 00:38:04;;;;;;;12.00;2.58;;;-1.80;99.90;;;;;;4983015;28;20031;-79
2022/01/07 00:40:30;;;;;;;9.38;2.78;;;-1.90;99.90;;;;;;4983545;28;20023;-79
2022/01/07 00:42:56;;;;;;;;;;;-1.90;99.90;;;;;;5001216;28;20099;-80
2022/01/07 00:48:26;;;;;;;11.20;4.85;;;-1.70;99.90;;;;;;5002040;28;20042;-80
2022/01/07 00:51:45;;;;;;;17.48;7.30;;;-1.90;99.90;;;;;;4982269;28;20117;-80
2022/01/07 00:54:11;;;;;;;18.17;6.90;;;-1.80;99.90;;;;;;4984846;28;20030;-81
2022/01/07 00:56:37;;;;;;;;;;;-1.90;99.90;;;;;;4970140;28;20034;-79
2022/01/07 00:59:03;;;;;;;13.80;4.93;;;-1.80;99.90;;;;;;4986191;28;19901;-80
2022/01/07 01:01:28;;;;;;;;;;;-1.90;99.90;;;;;;5002865;28;20090;-80
2022/01/07 01:03:56;;;;;;;15.05;5.72;;;-1.90;99.90;;;;;;4985893;28;19962;-80
2022/01/07 01:06:22;;;;;;;18.23;5.97;;;-2.10;99.90;;;;;;4986235;28;20007;-80
2022/01/07 01:08:47;;;;;;;;;;;-2.10;99.90;;;;;;4986530;28;20022;-80
2022/01/07 01:11:16;;;;;;;11.70;4.80;;;-2.20;99.90;;;;;;4985877;28;19902;-80
2022/01/07 01:13:43;;;;;;;11.07;4.05;;;-2.10;99.90;;;;;;4985990;28;20019;-80
2022/01/07 01:16:10;;;;;;;11.55;4.47;;;-2.40;99.90;;;;;;4986111;28;20058;-81
2022/01/07 01:18:36;;;;;;;11.40;4.47;;;-2.30;99.90;;;;;;5002438;28;20018;-81
2022/01/07 01:21:02;;;;;;;;;;;-2.50;99.90;;;;;;4985260;28;20055;-81
2022/01/07 01:23:27;;;;;;;23.50;8.00;;;-2.40;99.90;;;;;;4985782;28;19894;-81
2022/01/07 01:25:53;;;;;;;;;;;-2.50;99.90;;;;;;4985705;28;20042;-81
2022/01/07 01:28:23;;;;;;;19.35;6.47;;;-2.50;99.90;;;;;;4985606;28;19921;-80
2022/01/07 01:30:49;;;;;;;8.80;3.72;;;-2.50;99.90;;;;;;4985660;28;20018;-80
2022/01/07 01:33:15;;;;;;;;;;;-2.50;99.90;;;;;;4985337;28;20026;-81
2022/01/07 01:35:41;;;;;;;9.05;2.58;;;-2.50;99.90;;;;;;5020451;23;19925;-79
2022/01/07 01:38:06;;;;;;;;;;;-2.40;99.90;;;;;;4978308;28;20066;-79
2022/01/07 01:40:32;;;;;;;8.80;2.58;;;-2.40;99.90;;;;;;4977831;28;19917;-77
2022/01/07 01:42:58;;;;;;;10.13;3.13;;;-2.40;99.90;;;;;;4959135;28;20496;-79
2022/01/07 01:45:24;;;;;;;;;;;-2.40;99.90;;;;;;4965879;28;20034;-79
2022/01/07 01:47:52;;;;;;;10.93;3.03;;;-2.40;99.90;;;;;;4970971;28;20004;-79
2022/01/07 01:50:18;;;;;;;12.52;3.95;;;-2.50;99.90;;;;;;4976620;28;20026;-78
2022/01/07 01:52:50;;;;;;;15.55;3.83;;;-2.50;99.90;;;;;;4978222;28;20034;-79
2022/01/07 01:55:18;;;;;;;18.92;6.43;;;-2.60;99.90;;;;;;4977974;28;20018;-78
2022/01/07 01:57:44;;;;;;;15.30;5.32;;;-2.50;99.90;;;;;;4976704;28;20030;-78
2022/01/07 02:00:11;;;;;;;6.78;1.77;;;-2.50;99.90;;;;;;4963485;28;20134;-80
2022/01/07 02:02:37;;;;;;;5.47;1.20;;;-2.60;99.90;;;;;;4990965;28;20019;-78
2022/01/07 02:05:03;;;;;;;;;;;-2.50;99.90;;;;;;4989334;28;20046;-79
2022/01/07 02:07:29;;;;;;;5.28;1.73;;;-2.60;99.90;;;;;;4971964;28;19906;-79
2022/01/07 02:09:55;;;;;;;;;;;-2.70;99.90;;;;;;4984193;28;20023;-79
2022/01/07 02:12:21;;;;;;;11.23;2.88;;;-2.70;99.90;;;;;;4969674;28;19910;-79
2022/01/07 02:14:56;;;;;;;11.85;3.50;;;-2.80;99.90;;;;;;4967832;28;20026;-79
2022/01/07 02:17:22;;;;;;;18.98;5.47;;;-2.90;99.90;;;;;;4976873;28;20130;-79
2022/01/07 02:19:49;;;;;;;13.07;4.63;;;-3.00;99.90;;;;;;4965851;28;20499;-79
2022/01/07 02:22:17;;;;;;;22.55;7.25;;;-3.00;99.90;;;;;;4980269;28;20134;-78
2022/01/07 02:24:44;;;;;;;21.65;6.85;;;-3.00;99.90;;;;;;4982090;28;20564;-81
2022/01/07 02:27:11;;;;;;;19.48;4.15;;;-3.00;99.90;;;;;;4960668;28;20045;-78
2022/01/07 02:29:38;;;;;;;44.15;13.40;;;-2.60;99.90;;;;;;4976706;28;20085;-78
2022/01/07 02:32:04;;;;;;;34.10;10.23;;;-2.50;99.90;;;;;;4975465;28;20034;-78
2022/01/07 02:34:30;;;;;;;16.17;5.25;;;-2.50;99.90;;;;;;4959915;28;20102;-78
2022/01/07 02:36:55;;;;;;;;;;;-2.40;99.90;;;;;;4978431;28;20127;-78
2022/01/07 02:39:21;;;;;;;10.38;3.22;;;-2.40;99.90;;;;;;4977782;28;20363;-79
2022/01/07 02:41:46;;;;;;;;;;;-2.40;99.90;;;;;;4978440;28;20588;-78
2022/01/07 02:44:12;;;;;;;9.65;3.10;;;-2.40;99.90;;;;;;4960546;28;20462;-78
2022/01/07 02:46:38;;;;;;;15.50;5.35;;;-2.50;99.90;;;;;;4969794;28;20092;-79
2022/01/07 02:49:09;;;;;;;13.40;5.20;;;-2.60;99.90;;;;;;4989970;28;20029;-79
2022/01/07 02:51:34;;;;;;;7.85;3.22;;;-2.60;99.90;;;;;;4988931;28;20036;-79
2022/01/07 02:54:00;;;;;;;;;;;-2.60;99.90;;;;;;4977322;28;20114;-79
2022/01/07 02:56:25;;;;;;;9.25;3.08;;;-2.50;99.90;;;;;;4977146;28;20294;-79
2022/01/07 02:58:51;;;;;;;;;;;-2.50;99.90;;;;;;4975705;28;20031;-79
2022/01/07 03:01:17;;;;;;;3.90;1.48;;;-2.50;99.90;;;;;;4991676;28;19913;-80
2022/01/07 03:03:42;;;;;;;4.70;1.38;;;-2.30;99.90;;;;;;4978880;28;20030;-79
2022/01/07 03:06:08;;;;;;;;;;;-2.10;99.90;;;;;;4980901;28;20030;-80
2022/01/07 03:08:34;;;;;;;4.88;0.90;;;-2.00;99.90;;;;;;4984275;28;19910;-80
2022/01/07 03:10:59;;;;;;;;;;;-2.00;99.20;;;;;;4988179;28;20023;-80
2022/01/07 03:13:25;;;;;;;11.13;4.00;;;-1.80;97.20;;;;;;4986603;28;19975;-81
2022/01/07 03:15:50;;;;;;;;;;;-1.70;96.60;;;;;;4985992;28;20079;-81
2022/01/07 03:18:16;;;;;;;18.15;9.45;;;-1.70;96.60;;;;;;4987119;28;19945;-80
2022/01/07 03:20:42;;;;;;;;;;;-1.70;95.20;;;;;;4986078;28;20034;-80
2022/01/07 03:23:11;;;;;;;17.13;8.43;;;-1.70;94.70;;;;;;5000533;28;19957;-80
2022/01/07 03:25:37;;;;;;;26.73;11.40;;;-1.70;95.50;;;;;;5007484;28;20062;-81
2022/01/07 03:28:03;;;;;;;;;;;-1.70;95.10;;;;;;5006517;28;20491;-80
2022/01/07 03:30:29;;;;;;;16.02;8.52;;;-1.70;95.00;;;;;;4987976;28;19929;-79
2022/01/07 03:32:55;;;;;;;16.10;9.05;;;-1.80;96.00;;;;;;5007283;28;20034;-80
2022/01/07 03:35:21;;;;;;;5.00;1.35;;;-1.90;97.20;;;;;;4989562;28;20038;-81
2022/01/07 03:37:49;;;;;;;4.05;1.58;;;-1.90;96.20;;;;;;4990569;28;20038;-81
2022/01/07 03:40:16;;;;;;;4.05;1.15;;;-1.90;96.80;;;;;;4990099;28;20041;-80
2022/01/07 03:42:44;;;;;;;3.53;0.73;;;-1.90;97.30;;;;;;4991662;28;20053;-81
2022/01/07 03:45:10;;;;;;;29.35;16.60;;;-2.00;98.00;;;;;;5009276;28;20023;-81
2022/01/07 03:47:36;;;;;;;11.15;4.80;;;-2.10;97.00;;;;;;5010507;28;20033;-81
2022/01/07 03:50:03;;;;;;;;;;;-2.00;97.50;;;;;;5009752;28;20117;-80
2022/01/07 03:52:30;;;;;;;2.92;1.10;;;-2.10;97.30;;;;;;4991798;28;19929;-81
2022/01/07 03:54:55;;;;;;;3.55;0.88;;;-2.20;98.30;;;;;;4992795;28;20039;-79
2022/01/07 03:57:21;;;;;;;;;;;-2.20;98.20;;;;;;4991251;28;20189;-80
2022/01/07 03:59:48;;;;;;;5.43;0.90;;;-2.10;97.40;;;;;;4987222;28;19921;-81
2022/01/07 04:02:17;;;;;;;2.53;1.13;;;-2.10;97.10;;;;;;4990623;28;20034;-83
2022/01/07 04:04:42;;;;;;;2.78;0.77;;;-2.10;96.80;;;;;;4995268;28;20125;-81
2022/01/07 04:07:08;;;;;;;;;;;-2.00;98.00;;;;;;4991543;28;20026;-81
2022/01/07 04:09:34;;;;;;;4.45;0.95;;;-2.10;99.90;;;;;;4989861;28;19937;-81
2022/01/07 04:12:00;;;;;;;6.18;1.85;;;-2.20;99.90;;;;;;4987804;28;20031;-79
2022/01/07 04:14:26;;;;;;;;;;;-2.30;99.90;;;;;;4980029;28;20039;-79
2022/01/07 04:16:52;;;;;;;7.38;2.65;;;-2.50;99.90;;;;;;4978933;28;19910;-80
2022/01/07 04:19:18;;;;;;;;;;;-2.60;99.90;;;;;;4996783;28;20034;-79
2022/01/07 04:21:43;;;;;;;11.13;3.58;;;-2.60;99.90;;;;;;4976812;28;20438;-79
2022/01/07 04:24:09;;;;;;;9.23;3.35;;;-2.70;99.90;;;;;;4984604;28;20022;-80
2022/01/07 04:26:35;;;;;;;10.57;4.78;;;-2.70;99.90;;;;;;4991613;28;20033;-81
2022/01/07 04:29:01;;;;;;;;;;;-2.80;99.90;;;;;;5016872;28;20018;-81
2022/01/07 04:31:27;;;;;;;7.85;3.30;;;-2.90;99.90;;;;;;5000401;28;19901;-81
2022/01/07 04:33:52;;;;;;;7.90;2.63;;;-3.00;99.90;;;;;;5030280;23;20471;-80
2022/01/07 04:36:18;;;;;;;;;;;-3.10;99.90;;;;;;4968974;28;20047;-79
2022/01/07 04:38:45;;;;;;;9.75;2.65;;;-3.10;99.90;;;;;;4987540;28;19907;-81
2022/01/07 04:41:10;;;;;;;7.78;1.85;;;-3.20;99.90;;;;;;4971569;28;20023;-80
2022/01/07 04:43:36;;;;;;;;;;;-3.20;99.90;;;;;;4971802;28;20081;-80
2022/01/07 04:46:01;;;;;;;4.57;1.52;;;-3.30;99.90;;;;;;4971465;28;19902;-80
2022/01/07 04:48:27;;;;;;;;;;;-3.30;99.90;;;;;;4972229;28;20023;-79
2022/01/07 04:50:53;;;;;;;9.60;2.92;;;-3.30;99.90;;;;;;4971816;28;20005;-80
2022/01/07 04:53:18;;;;;;;;;;;-3.30;99.90;;;;;;4974078;28;20098;-79
2022/01/07 04:55:44;;;;;;;9.00;3.03;;;-3.30;99.90;;;;;;4993710;28;19906;-80
2022/01/07 04:58:12;;;;;;;8.85;2.88;;;-3.30;99.90;;;;;;4993819;28;20031;-81
2022/01/07 05:00:41;;;;;;;6.50;2.50;;;-3.30;99.90;;;;;;4975181;28;20033;-80
2022/01/07 05:03:06;;;;;;;8.07;3.03;;;-3.30;99.90;;;;;;4994088;28;20467;-81
2022/01/07 05:05:32;;;;;;;;;;;-3.30;99.90;;;;;;4993792;28;20027;-81
2022/01/07 05:07:58;;;;;;;28.10;9.07;;;-3.30;99.90;;;;;;4993915;28;19906;-80
2022/01/07 05:10:24;;;;;;;25.40;8.15;;;-3.40;99.90;;;;;;4977239;28;20027;-80
2022/01/07 05:12:49;;;;;;;;;;;-3.40;99.90;;;;;;4994909;28;20035;-80
2022/01/07 05:15:17;;;;;;;9.57;3.47;;;-3.40;99.90;;;;;;4977433;28;19906;-80
2022/01/07 05:17:43;;;;;;;9.02;3.05;;;-3.50;99.90;;;;;;4977792;28;20026;-81
2022/01/07 05:20:10;;;;;;;10.82;3.55;;;-3.40;99.90;;;;;;4994085;28;20114;-81
2022/01/07 05:22:36;;;;;;;6.93;2.35;;;-3.40;99.90;;;;;;4976145;28;20495;-80
2022/01/07 05:25:02;;;;;;;;;;;-3.40;99.90;;;;;;4980942;28;20030;-81
2022/01/07 05:27:28;;;;;;;30.50;9.82;;;-3.30;99.90;;;;;;4982943;28;19906;-80
2022/01/07 05:29:54;;;;;;;26.30;12.50;;;-3.30;99.90;;;;;;4979285;28;20042;-80
2022/01/07 05:32:19;;;;;;;29.77;12.15;;;-3.30;99.90;;;;;;4977055;28;20034;-80
2022/01/07 05:37:21;;;;;;;16.00;6.30;;;-3.20;99.90;;;;;;5461826;23;19922;-81
2022/01/07 05:39:46;;;;;;;;;;;-3.10;99.90;;;;;;4982918;28;20023;-81
2022/01/07 05:42:12;;;;;;;20.85;7.03;;;-3.00;99.90;;;;;;4999248;28;19930;-80
2022/01/07 05:44:38;;;;;;;;;;;-2.90;99.90;;;;;;4998440;28;20034;-79
2022/01/07 05:47:04;;;;;;;12.27;3.45;;;-2.80;99.90;;;;;;4979224;28;19906;-79
2022/01/07 05:49:30;;;;;;;;;;;-2.80;99.90;;;;;;4966882;28;20022;-78
2022/01/07 05:51:55;;;;;;;12.32;4.15;;;-2.70;99.90;;;;;;4980068;28;19916;-80
2022/01/07 05:54:21;;;;;;;20.42;6.78;;;-2.60;99.90;;;;;;4985491;28;20381;-78
2022/01/07 05:56:47;;;;;;;;;;;-2.60;99.90;;;;;;4987126;28;20038;-80
2022/01/07 05:59:12;;;;;;;24.13;10.50;;;-2.70;99.90;;;;;;4991976;28;19929;-79
2022/01/07 06:01:38;;;;;;;;;;;-2.70;99.90;;;;;;4968543;28;20027;-80
2022/01/07 06:04:04;;;;;;;41.03;15.77;;;-2.80;99.90;;;;;;4966533;28;20442;-81
2022/01/07 06:06:29;;;;;;;;;;;-2.80;99.90;;;;;;4969122;28;20042;-80
2022/01/07 06:08:55;;;;;;;67.22;28.88;;;-2.80;99.90;;;;;;4979447;28;19934;-81
2022/01/07 06:11:21;;;;;;;;;;;-2.80;99.90;;;;;;4979502;28;20011;-81
2022/01/07 06:13:47;;;;;;;20.60;7.97;;;-2.90;99.90;;;;;;4980401;28;19929;-81
2022/01/07 06:16:12;;;;;;;20.02;6.85;;;-3.00;99.90;;;;;;4991265;28;20089;-81
2022/01/07 06:18:54;;;;;;;;;;;-3.00;99.90;;;;;;4967796;28;20126;-80
2022/01/07 06:21:21;;;;;;;27.85;9.13;;;-3.00;99.90;;;;;;4986564;28;19957;-81
2022/01/07 06:23:47;;;;;;;23.13;8.88;;;-3.10;99.90;;;;;;4965574;28;20041;-78
2022/01/07 06:26:13;;;;;;;21.00;5.85;;;-3.10;99.90;;;;;;4977370;28;20095;-80
2022/01/07 06:28:38;;;;;;;;;;;-3.20;99.90;;;;;;4981743;28;20046;-79
2022/01/07 06:31:04;;;;;;;12.02;4.03;;;-3.20;99.90;;;;;;4965210;28;19949;-78
2022/01/07 06:33:30;;;;;;;;;;;-3.20;99.90;;;;;;4977922;28;20080;-80
2022/01/07 06:35:55;;;;;;;16.63;4.78;;;-3.20;99.90;;;;;;4999223;28;19910;-79
2022/01/07 06:38:21;;;;;;;18.55;6.95;;;-3.30;99.90;;;;;;4979819;28;20411;-78
2022/01/07 06:40:46;;;;;;;;;;;-3.20;99.90;;;;;;4974720;28;20039;-79
2022/01/07 06:43:12;;;;;;;55.83;16.65;;;-3.20;99.90;;;;;;4975324;28;19912;-79
2022/01/07 06:45:38;;;;;;;;;;;-3.20;99.90;;;;;;4984048;28;20031;-80
2022/01/07 06:48:04;;;;;;;31.55;11.02;;;-3.30;99.90;;;;;;4962895;28;19906;-81
2022/01/07 06:50:29;;;;;;;;;;;-3.30;99.90;;;;;;4970856;28;20022;-81
2022/01/07 06:52:55;;;;;;;35.78;9.80;;;-3.20;99.90;;;;;;4968119;28;19910;-80
2022/01/07 06:55:21;;;;;;;22.88;6.93;;;-3.20;99.90;;;;;;4965103;28;20059;-80
2022/01/07 06:57:46;;;;;;;;;;;-3.20;99.90;;;;;;4986110;28;20034;-80
2022/01/07 07:00:13;;;;;;;23.92;8.55;;;-3.20;99.90;;;;;;4989188;28;19953;-80
2022/01/07 07:02:38;;;;;;;31.52;14.52;;;-3.20;99.90;;;;;;4957863;28;20027;-79
2022/01/07 07:05:04;;;;;;;;;;;-3.10;99.90;;;;;;4956812;28;20095;-79
2022/01/07 07:07:30;;;;;;;39.10;16.60;;;-3.20;99.90;;;;;;4973999;28;19906;-78
2022/01/07 07:09:55;;;;;;;19.27;6.78;;;-3.20;99.90;;;;;;4963725;28;20035;-81
2022/01/07 07:12:21;;;;;;;;;;;-3.10;99.90;;;;;;4968686;28;20034;-82
2022/01/07 07:14:47;;;;;;;22.17;8.13;;;-3.10;99.90;;;;;;4969511;28;19938;-80
2022/01/07 07:17:13;;;;;;;20.95;5.32;;;-3.00;99.90;;;;;;4969659;28;20034;-80
2022/01/07 07:19:39;;;;;;;9.65;3.83;;;-2.70;99.90;;;;;;4974071;28;20014;-82
2022/01/07 07:22:04;;;;;;;;;;;-2.40;99.90;;;;;;4996090;28;20030;-81
2022/01/07 07:24:30;;;;;;;16.38;7.05;;;-2.00;99.90;;;;;;4994477;28;19977;-82
2022/01/07 07:26:56;;;;;;;;;;;-1.70;99.90;;;;;;4982655;28;20042;-82
2022/01/07 07:29:22;;;;;;;42.80;17.17;;;-1.40;99.90;;;;;;4993353;28;19913;-82
2022/01/07 07:31:50;;;;;;;;;;;-1.20;99.90;;;;;;4993909;28;20015;-80
2022/01/07 07:36:41;;;;;;;;;;;-0.90;99.90;;;;;;4994386;28;20030;-82
2022/01/07 07:39:09;;;;;;;32.00;14.32;;;-0.80;99.90;;;;;;4977243;28;19918;-81
2022/01/07 07:41:37;;;;;;;52.67;25.08;;;-0.70;99.90;;;;;;4976512;28;20062;-80
2022/01/07 07:44:04;;;;;;;76.47;34.85;;;-0.50;99.90;;;;;;4992670;28;20061;-82
2022/01/07 07:46:32;;;;;;;67.82;31.90;;;-0.30;99.90;;;;;;4975518;28;20018;-81
2022/01/07 07:49:02;;;;;;;35.33;18.88;;;-0.20;99.90;;;;;;4976828;28;20050;-80
2022/01/07 07:51:28;;;;;;;34.35;16.95;;;0.00;99.90;;;;;;4993623;28;20023;-81
2022/01/07 07:53:54;;;;;;;;;;;0.20;99.90;;;;;;4977212;28;20038;-82
2022/01/07 07:56:20;;;;;;;36.40;14.88;;;0.50;99.90;;;;;;4975943;28;20353;-80
2022/01/07 07:58:46;;;;;;;;;;;0.80;99.90;;;;;;4977232;28;20027;-81
2022/01/07 08:01:12;;;;;;;39.50;18.75;;;1.10;98.60;;;;;;4978286;28;19921;-81
2022/01/07 08:03:38;;;;;;;38.15;18.83;;;1.50;98.20;;;;;;4979673;28;20030;-80
2022/01/07 08:06:04;;;;;;;34.17;16.33;;;1.80;94.10;;;;;;4973212;28;20035;-80
2022/01/07 08:08:31;;;;;;;;;;;2.10;91.50;;;;;;4972192;28;20050;-80
2022/01/07 08:11:00;;;;;;;37.35;17.83;;;2.40;85.00;;;;;;4971757;28;19906;-80
2022/01/07 08:15:58;;;;;;;;;;;2.80;78.90;;;;;;4989025;28;20023;-81
2022/01/07 08:18:31;;;;;;;32.97;15.05;;;3.20;78.10;;;;;;4971072;28;19890;-80
2022/01/07 08:21:05;;;;;;;27.27;13.10;;;3.50;73.90;;;;;;4996472;28;20782;-82
2022/01/07 08:23:32;;;;;;;20.25;10.93;;;3.60;71.40;;;;;;5013208;28;20053;-83
2022/01/07 08:25:58;;;;;;;17.40;9.20;;;3.90;70.60;;;;;;4997281;28;20041;-81
2022/01/07 08:28:28;;;;;;;11.88;5.50;;;4.10;66.50;;;;;;4998972;28;20034;-80
2022/01/07 08:36:19;;;;;;;35.38;15.38;;;5.30;60.30;;;;;;5016688;28;20041;-80
2022/01/07 08:38:45;;;;;;;33.95;14.63;;;5.80;58.80;;;;;;5011949;28;20265;-79
2022/01/07 08:41:12;;;;;;;20.80;9.02;;;6.10;57.60;;;;;;5008702;28;20037;-79
2022/01/07 08:43:38;;;;;;;19.23;9.15;;;6.20;56.50;;;;;;4990806;28;20037;-80
2022/01/07 08:46:05;;;;;;;;;;;6.30;55.30;;;;;;4998059;28;20081;-84
2022/01/07 08:48:31;;;;;;;20.70;9.25;;;6.10;55.40;;;;;;5002735;28;20024;-82
2022/01/07 08:50:56;;;;;;;14.15;6.75;;;5.80;56.70;;;;;;5008732;28;20045;-80
2022/01/07 08:53:22;;;;;;;16.80;8.60;;;5.50;56.90;;;;;;4999623;28;20031;-80
2022/01/07 08:55:48;;;;;;;16.20;7.50;;;5.30;58.00;;;;;;5017001;28;20038;-79
2022/01/07 08:58:14;;;;;;;;;;;5.00;58.30;;;;;;4995556;28;20045;-78
2022/01/07 09:00:40;;;;;;;17.02;8.40;;;4.80;58.40;;;;;;4987631;28;20340;-77
2022/01/07 09:03:06;;;;;;;;;;;4.60;59.90;;;;;;5009044;28;20031;-79
2022/01/07 09:05:31;;;;;;;9.65;4.82;;;4.40;59.10;;;;;;5006382;28;19917;-79
2022/01/07 09:07:57;;;;;;;;;;;4.10;60.80;;;;;;5003770;28;20030;-82
2022/01/07 09:10:23;;;;;;;7.53;3.17;;;4.00;62.80;;;;;;5000988;28;19913;-79
2022/01/07 09:12:49;;;;;;;9.98;3.15;;;3.90;64.40;;;;;;5004906;28;20475;-80
2022/01/07 09:15:15;;;;;;;8.38;3.42;;;3.90;64.30;;;;;;5002845;28;20026;-79
2022/01/07 09:17:40;;;;;;;;;;;3.90;65.10;;;;;;5001034;28;20037;-78
2022/01/07 09:20:08;;;;;;;10.68;3.78;;;3.80;64.30;;;;;;5001054;28;19921;-80
2022/01/07 09:22:34;;;;;;;8.95;3.00;;;3.60;66.30;;;;;;4982272;28;20030;-80
2022/01/07 09:25:01;;;;;;;10.20;3.47;;;3.60;66.50;;;;;;4996447;28;20042;-80
2022/01/07 09:27:27;;;;;;;9.48;3.90;;;3.60;66.50;;;;;;4982862;28;20030;-79
2022/01/07 09:29:52;;;;;;;;;;;3.50;68.20;;;;;;5000942;28;20038;-79
2022/01/07 09:32:18;;;;;;;8.15;3.22;;;3.30;68.80;;;;;;4965217;28;19910;-80
2022/01/07 09:34:43;;;;;;;26.92;13.85;;;3.20;70.10;;;;;;4960528;28;20030;-80
2022/01/07 09:37:09;;;;;;;13.88;3.65;;;3.30;69.20;;;;;;4970364;28;20051;-80
2022/01/07 09:39:36;;;;;;;;;;;3.20;69.30;;;;;;4966842;28;20043;-79
2022/01/07 09:42:04;;;;;;;6.22;2.35;;;3.10;68.80;;;;;;4982336;28;20294;-78
2022/01/07 09:44:30;;;;;;;10.35;3.20;;;3.10;69.60;;;;;;4980116;28;20500;-79
2022/01/07 09:46:59;;;;;;;6.47;2.63;;;3.00;69.60;;;;;;4961785;28;20042;-80
2022/01/07 09:49:33;;;;;;;4.50;2.10;;;3.00;69.40;;;;;;4962046;28;20026;-79
2022/01/07 09:51:59;;;;;;;7.85;2.78;;;3.00;71.00;;;;;;4987469;28;20025;-81
2022/01/07 09:54:25;;;;;;;10.23;2.95;;;2.90;68.60;;;;;;4989439;28;20023;-80
2022/01/07 09:56:51;;;;;;;;;;;2.80;69.40;;;;;;4965325;28;20176;-79
2022/01/07 09:59:18;;;;;;;7.60;3.25;;;2.80;70.40;;;;;;4983766;28;19914;-80
2022/01/07 10:02:15;;;;;;;8.52;3.30;;;2.80;70.30;;;;;;4969233;28;20027;-82
2022/01/07 10:04:41;;;;;;;10.48;3.60;;;2.70;71.40;;;;;;4976593;28;20065;-81
2022/01/07 10:07:20;;;;;;;10.38;3.22;;;2.70;72.20;;;;;;4971928;28;20037;-81
2022/01/07 10:10:04;;;;;;;8.18;2.53;;;2.70;71.60;;;;;;4978559;28;20030;-79
2022/01/07 10:12:48;;;;;;;6.38;2.03;;;2.70;69.10;;;;;;4970732;28;20381;-80
2022/01/07 10:15:15;;;;;;;6.72;2.35;;;2.70;70.00;;;;;;4954145;28;20042;-80
2022/01/07 10:17:53;;;;;;;6.78;2.97;;;2.70;70.30;;;;;;4940836;28;20124;-79
2022/01/07 10:20:32;;;;;;;9.63;2.85;;;2.70;69.90;;;;;;4952520;28;20042;-80
2022/01/07 10:23:03;;;;;;;8.52;3.03;;;2.70;70.00;;;;;;4956502;28;20046;-80
2022/01/07 10:25:40;;;;;;;6.78;2.42;;;2.60;70.80;;;;;;4944236;28;20051;-80
2022/01/07 10:28:18;;;;;;;6.72;2.35;;;2.50;70.70;;;;;;4963753;28;20464;-80
2022/01/07 10:30:49;;;;;;;9.50;2.70;;;2.50;73.20;;;;;;4951821;28;20039;-80
2022/01/07 10:33:36;;;;;;;9.10;3.22;;;2.40;73.00;;;;;;4964467;28;20125;-80
2022/01/07 10:36:08;;;;;;;;;;;2.40;74.60;;;;;;4955348;28;20055;-80
2022/01/07 10:38:49;;;;;;;7.10;2.78;;;2.40;72.10;;;;;;4971948;28;20403;-79
2022/01/07 10:41:15;;;;;;;7.55;3.05;;;2.40;70.60;;;;;;4954514;28;20461;-80
2022/01/07 10:43:41;;;;;;;;;;;2.30;70.70;;;;;;4950538;28;20512;-81
2022/01/07 10:46:15;;;;;;;8.40;2.45;;;2.30;72.80;;;;;;4949260;29;20283;-80
2022/01/07 10:48:56;;;;;;;11.57;3.17;;;2.30;72.90;;;;;;4967131;29;20035;-80
2022/01/07 10:51:29;;;;;;;8.02;2.72;;;2.30;72.60;;;;;;4948758;28;20051;-80
2022/01/07 10:53:56;;;;;;;6.80;2.30;;;2.30;73.70;;;;;;4968331;29;20023;-81
2022/01/07 10:56:32;;;;;;;6.45;2.33;;;2.20;73.10;;;;;;4967174;29;20031;-80
2022/01/07 10:59:01;;;;;;;5.03;2.17;;;2.20;74.00;;;;;;4967057;29;20566;-81
2022/01/07 11:01:39;;;;;;;5.95;2.45;;;2.20;74.50;;;;;;4947513;29;20325;-79
2022/01/07 11:04:07;;;;;;;9.60;3.25;;;2.20;73.60;;;;;;4947892;29;20662;-80
2022/01/07 11:06:34;;;;;;;12.48;5.00;;;2.20;72.10;;;;;;4964858;29;20027;-78
2022/01/07 11:09:00;;;;;;;9.25;4.10;;;2.30;72.50;;;;;;4947530;29;20522;-79
2022/01/07 11:11:28;;;;;;;6.95;3.00;;;2.30;75.30;;;;;;4962565;29;20436;-80
2022/01/07 11:13:55;;;;;;;7.72;2.58;;;2.30;75.00;;;;;;4947171;29;20058;-81
2022/01/07 11:16:21;;;;;;;12.13;2.85;;;2.30;75.00;;;;;;4963945;28;20023;-79
2022/01/07 11:18:48;;;;;;;;;;;2.30;70.70;;;;;;4946991;29;20038;-78
2022/01/07 11:21:17;;;;;;;59.23;26.07;;;2.30;70.90;;;;;;4976128;28;19910;-80
2022/01/07 11:23:43;;;;;;;23.95;9.77;;;2.20;71.60;;;;;;4965819;28;20026;-79
2022/01/07 11:26:09;;;;;;;;;;;2.20;74.60;;;;;;4967936;28;20019;-79
2022/01/07 11:28:36;;;;;;;7.20;2.60;;;2.20;76.60;;;;;;4961343;28;19914;-78
2022/01/07 11:31:13;;;;;;;9.60;3.33;;;2.30;77.30;;;;;;4982953;28;20059;-78
2022/01/07 11:33:39;;;;;;;6.93;2.70;;;2.30;77.10;;;;;;4976817;28;20070;-79
2022/01/07 11:36:11;;;;;;;10.93;3.17;;;2.30;77.40;;;;;;4977124;28;20039;-78
2022/01/07 11:38:38;;;;;;;12.38;3.83;;;2.30;75.90;;;;;;4958086;28;20084;-77
2022/01/07 11:41:09;;;;;;;11.65;3.50;;;2.30;76.50;;;;;;4963206;28;20042;-79
2022/01/07 11:43:39;;;;;;;7.70;3.47;;;2.30;75.50;;;;;;4940210;28;20058;-79
2022/01/07 11:46:29;;;;;;;5.30;2.47;;;2.30;76.80;;;;;;4949412;28;20042;-78
2022/01/07 11:48:56;;;;;;;13.63;2.45;;;2.40;76.50;;;;;;4951772;28;20266;-77
2022/01/07 11:51:23;;;;;;;12.90;2.10;;;2.40;75.10;;;;;;4941690;28;20481;-78
2022/01/07 11:53:48;;;;;;;6.47;2.60;;;2.40;74.40;;;;;;4953558;28;20094;-78
2022/01/07 11:56:15;;;;;;;;;;;2.30;74.50;;;;;;4951435;28;20031;-77
2022/01/07 11:58:52;;;;;;;6.25;2.90;;;2.30;73.90;;;;;;4932211;28;19961;-76
2022/01/07 12:01:28;;;;;;;9.93;2.92;;;2.30;72.00;;;;;;4929055;28;20130;-79
2022/01/07 12:03:57;;;;;;;8.93;3.83;;;2.30;72.70;;;;;;4946420;28;20141;-78
2022/01/07 12:06:23;;;;;;;8.60;3.08;;;2.30;73.10;;;;;;4948194;28;20162;-78
2022/01/07 12:08:54;;;;;;;;;;;2.20;72.30;;;;;;4948571;28;20070;-78
2022/01/07 12:11:23;;;;;;;4.45;2.35;;;2.30;71.00;;;;;;4948208;28;19925;-78
2022/01/07 12:13:49;;;;;;;6.00;2.47;;;2.30;70.70;;;;;;4936994;29;20118;-81
2022/01/07 12:16:25;;;;;;;;;;;2.40;72.10;;;;;;4948622;28;20069;-81
2022/01/07 12:18:51;;;;;;;11.52;3.55;;;2.30;71.00;;;;;;4941190;28;19918;-78
2022/01/07 12:21:17;;;;;;;;;;;2.30;72.60;;;;;;4947842;28;20050;-78
2022/01/07 12:23:43;;;;;;;8.07;2.97;;;2.30;73.90;;;;;;4955006;28;19914;-80
2022/01/07 12:26:10;;;;;;;5.63;2.10;;;2.30;74.20;;;;;;4958088;28;20063;-78
2022/01/07 12:28:40;;;;;;;5.60;2.22;;;2.40;74.20;;;;;;4931895;29;20078;-77
2022/01/07 12:31:08;;;;;;;5.85;1.75;;;2.30;73.50;;;;;;4940398;28;20504;-77
2022/01/07 12:33:34;;;;;;;9.85;2.42;;;2.30;73.00;;;;;;4951135;28;20035;-79
2022/01/07 12:35:59;;;;;;;;;;;2.30;76.40;;;;;;4957275;28;20050;-80
2022/01/07 12:38:25;;;;;;;6.15;2.25;;;2.30;78.00;;;;;;4965751;28;19922;-81
2022/01/07 12:41:00;;;;;;;7.03;2.63;;;2.30;77.50;;;;;;4965803;28;20039;-80
2022/01/07 12:43:35;;;;;;;9.80;2.63;;;2.30;75.10;;;;;;4973451;28;20026;-84
2022/01/07 12:46:04;;;;;;;9.25;3.78;;;2.30;73.80;;;;;;4979088;28;20034;-85
2022/01/07 12:48:41;;;;;;;6.68;2.85;;;2.30;73.10;;;;;;4976151;28;20115;-83
2022/01/07 12:51:07;;;;;;;7.72;2.50;;;2.40;71.90;;;;;;4968035;28;20655;-79
2022/01/07 12:53:36;;;;;;;9.55;2.55;;;2.40;71.40;;;;;;4980221;28;20215;-80
2022/01/07 12:56:23;;;;;;;7.95;2.58;;;2.40;70.60;;;;;;4968886;28;20066;-80
2022/01/07 12:58:48;;;;;;;6.57;2.55;;;2.40;70.30;;;;;;4969651;28;20034;-84
2022/01/07 13:01:31;;;;;;;7.97;3.28;;;2.30;70.40;;;;;;4964782;28;20090;-79
2022/01/07 13:04:08;;;;;;;7.65;2.63;;;2.30;71.30;;;;;;4966326;28;20034;-79
2022/01/07 13:06:44;;;;;;;5.68;2.55;;;2.30;70.20;;;;;;4985275;28;20015;-79
2022/01/07 13:09:12;;;;;;;6.72;2.83;;;2.30;70.00;;;;;;4981341;28;20023;-80
2022/01/07 13:11:38;;;;;;;6.28;2.53;;;2.20;70.00;;;;;;4983739;28;20050;-82
2022/01/07 13:14:09;;;;;;;5.32;2.40;;;2.20;71.20;;;;;;4986606;28;20073;-79
2022/01/07 13:16:37;;;;;;;7.97;2.75;;;2.20;71.40;;;;;;4996753;28;20011;-84
2022/01/07 13:19:10;;;;;;;8.25;2.83;;;2.20;70.80;;;;;;4975260;28;20038;-80
2022/01/07 13:21:42;;;;;;;7.10;3.10;;;2.20;70.80;;;;;;4998967;28;20042;-84
2022/01/07 13:24:14;;;;;;;5.35;2.38;;;2.20;69.90;;;;;;4993030;28;20399;-79